createdAt,value
2022-12-18T00:00:38.297Z,101316.81
2022-12-18T00:03:39.423Z,101314.38
2022-12-18T00:06:31.444Z,101324.56
2022-12-18T00:09:31.354Z,101288.19
2022-12-18T00:12:39.156Z,101291.81
2022-12-18T00:15:45.795Z,101311.09
2022-12-18T00:18:57.483Z,101303.81
2022-12-18T00:21:51.883Z,101301.00
2022-12-18T00:24:48.513Z,101315.03
2022-12-18T00:27:37.628Z,101311.03
2022-12-18T00:30:32.074Z,101281.44
2022-12-18T00:33:30.456Z,101306.25
2022-12-18T00:36:26.709Z,101301.81
2022-12-18T00:39:34.896Z,101300.25
2022-12-18T00:42:42.633Z,101306.69
2022-12-18T00:45:43.306Z,101302.41
2022-12-18T00:48:34.980Z,101278.72
2022-12-18T00:51:28.912Z,101320.13
2022-12-18T00:54:18.575Z,101310.88
2022-12-18T00:57:07.035Z,101319.94
2022-12-18T00:59:57.490Z,101302.81
2022-12-18T01:02:52.474Z,101339.75
2022-12-18T01:05:43.649Z,101325.78
2022-12-18T01:08:31.566Z,101327.94
2022-12-18T01:11:21.877Z,101331.94
2022-12-18T01:14:10.358Z,101326.88
2022-12-18T01:17:00.637Z,101331.97
2022-12-18T01:19:49.052Z,101329.84
2022-12-18T01:22:38.035Z,101312.00
2022-12-18T01:25:28.628Z,101338.47
2022-12-18T01:28:24.227Z,101343.75
2022-12-18T01:31:21.425Z,101341.09
2022-12-18T01:34:11.412Z,101335.00
2022-12-18T01:37:00.023Z,101335.78
2022-12-18T01:39:48.471Z,101333.91
2022-12-18T01:42:37.234Z,101361.50
2022-12-18T01:45:33.705Z,101357.72
2022-12-18T01:48:26.510Z,101359.03
2022-12-18T01:51:17.754Z,101337.56
2022-12-18T01:54:05.946Z,101312.44
2022-12-18T01:56:56.903Z,101321.47
2022-12-18T01:59:53.164Z,101333.94
2022-12-18T02:02:43.684Z,101327.38
2022-12-18T02:06:13.400Z,101354.34
2022-12-18T02:09:18.232Z,101344.50
2022-12-18T02:12:19.415Z,101300.94
2022-12-18T02:16:01.543Z,101320.75
2022-12-18T02:19:02.259Z,101340.09
2022-12-18T02:22:36.067Z,101344.13
2022-12-18T02:26:00.527Z,101307.69
2022-12-18T02:29:12.049Z,101304.44
2022-12-18T02:32:01.891Z,101299.13
2022-12-18T02:34:52.207Z,101317.25
2022-12-18T02:37:44.361Z,101294.50
2022-12-18T02:40:34.767Z,101325.47
2022-12-18T02:43:29.396Z,101328.16
2022-12-18T02:46:43.561Z,101331.38
2022-12-18T02:49:40.396Z,101329.22
2022-12-18T02:52:56.602Z,101330.41
2022-12-18T02:56:12.540Z,101322.38
2022-12-18T02:59:15.404Z,101330.25
2022-12-18T03:02:24.898Z,101323.38
2022-12-18T03:05:23.834Z,101323.16
2022-12-18T03:08:24.166Z,101347.53
2022-12-18T03:11:15.007Z,101345.41
2022-12-18T03:14:04.507Z,101332.22
2022-12-18T03:16:56.293Z,101327.16
2022-12-18T03:19:49.677Z,101331.38
2022-12-18T03:22:38.724Z,101335.41
2022-12-18T03:25:29.289Z,101321.06
2022-12-18T03:28:23.824Z,101316.41
2022-12-18T03:31:16.020Z,101319.69
2022-12-18T03:34:11.117Z,101318.56
2022-12-18T03:36:59.254Z,101321.47
2022-12-18T03:39:47.871Z,101324.44
2022-12-18T03:42:59.002Z,101319.16
2022-12-18T03:46:07.065Z,101309.28
2022-12-18T03:49:07.582Z,101314.75
2022-12-18T03:52:08.477Z,101314.47
2022-12-18T03:55:01.236Z,101324.50
2022-12-18T03:57:53.952Z,101325.09
2022-12-18T04:00:43.501Z,101296.63
2022-12-18T04:03:37.326Z,101319.41
2022-12-18T04:06:32.492Z,101319.56
2022-12-18T04:09:27.441Z,101327.88
2022-12-18T04:12:20.139Z,101313.19
2022-12-18T04:15:09.641Z,101331.66
2022-12-18T04:17:59.965Z,101320.88
2022-12-18T04:20:48.388Z,101313.00
2022-12-18T04:23:37.581Z,101316.75
2022-12-18T04:26:25.806Z,101313.25
2022-12-18T04:29:14.020Z,101312.00
2022-12-18T04:32:02.554Z,101319.16
2022-12-18T04:34:51.003Z,101329.25
2022-12-18T04:37:40.764Z,101324.97
2022-12-18T04:40:28.902Z,101320.50
2022-12-18T04:43:17.615Z,101306.38
2022-12-18T04:46:08.053Z,101318.75
2022-12-18T04:48:56.274Z,101310.22
2022-12-18T04:51:44.596Z,101308.81
2022-12-18T04:54:35.050Z,101298.47
2022-12-18T04:57:24.788Z,101294.19
2022-12-18T05:00:13.731Z,101310.88
2022-12-18T05:03:03.574Z,101308.56
2022-12-18T05:05:52.986Z,101310.47
2022-12-18T05:08:41.323Z,101303.78
2022-12-18T05:11:29.409Z,101317.41
2022-12-18T05:14:20.061Z,101321.72
2022-12-18T05:17:08.203Z,101314.97
2022-12-18T05:19:56.119Z,101328.84
2022-12-18T05:22:47.105Z,101333.66
2022-12-18T05:25:37.805Z,101326.06
2022-12-18T05:28:28.662Z,101329.88
2022-12-18T05:31:19.218Z,101326.22
2022-12-18T05:34:07.196Z,101328.41
2022-12-18T05:36:55.294Z,101339.38
2022-12-18T05:39:44.693Z,101331.41
2022-12-18T05:42:32.786Z,101317.94
2022-12-18T05:45:21.410Z,101310.22
2022-12-18T05:48:11.751Z,101316.34
2022-12-18T05:51:08.223Z,101318.75
2022-12-18T05:53:56.862Z,101327.09
2022-12-18T05:56:48.642Z,101319.59
2022-12-18T05:59:37.412Z,101312.94
2022-12-18T06:02:25.600Z,101317.47
2022-12-18T06:05:13.862Z,101310.28
2022-12-18T06:08:02.200Z,101326.28
2022-12-18T06:10:53.858Z,101332.75
2022-12-18T06:13:42.452Z,101329.97
2022-12-18T06:16:33.794Z,101331.34
2022-12-18T06:19:21.838Z,101342.94
2022-12-18T06:22:10.112Z,101332.81
2022-12-18T06:24:58.751Z,101333.63
2022-12-18T06:27:49.568Z,101344.06
2022-12-18T06:30:37.921Z,101343.53
2022-12-18T06:33:29.265Z,101353.41
2022-12-18T06:36:17.722Z,101353.41
2022-12-18T06:39:08.546Z,101356.06
2022-12-18T06:41:57.588Z,101353.13
2022-12-18T06:44:45.826Z,101351.78
2022-12-18T06:47:34.934Z,101356.66
2022-12-18T06:50:23.316Z,101360.66
2022-12-18T06:53:11.734Z,101368.38
2022-12-18T06:56:10.654Z,101366.22
2022-12-18T06:58:59.227Z,101364.06
2022-12-18T07:01:53.286Z,101365.13
2022-12-18T07:04:41.511Z,101362.22
2022-12-18T07:07:29.783Z,101376.44
2022-12-18T07:10:17.952Z,101370.56
2022-12-18T07:13:05.892Z,101381.75
2022-12-18T07:15:53.844Z,101380.63
2022-12-18T07:18:41.990Z,101380.31
2022-12-18T07:21:33.083Z,101375.75
2022-12-18T07:24:27.686Z,101383.22
2022-12-18T07:27:15.959Z,101375.19
2022-12-18T07:30:12.194Z,101357.34
2022-12-18T07:33:00.126Z,101365.59
2022-12-18T07:35:48.300Z,101375.19
2022-12-18T07:38:36.981Z,101372.28
2022-12-18T07:41:25.105Z,101378.13
2022-12-18T07:44:14.386Z,101375.41
2022-12-18T07:47:03.952Z,101389.53
2022-12-18T07:50:08.536Z,101364.09
2022-12-18T07:52:56.476Z,101372.59
2022-12-18T07:56:24.987Z,101358.06
2022-12-18T07:58:56.064Z,101367.03
2022-12-18T08:01:44.194Z,101371.25
2022-12-18T08:04:32.874Z,101373.22
2022-12-18T08:07:29.666Z,101373.28
2022-12-18T08:10:20.842Z,101373.22
2022-12-18T08:13:09.100Z,101381.22
2022-12-18T08:16:03.941Z,101385.09
2022-12-18T08:18:57.076Z,101364.66
2022-12-18T08:21:55.452Z,101363.03
2022-12-18T08:24:43.498Z,101376.09
2022-12-18T08:27:36.107Z,101386.56
2022-12-18T08:30:24.128Z,101397.16
2022-12-18T08:33:12.389Z,101385.06
2022-12-18T08:36:02.135Z,101355.31
2022-12-18T08:38:53.037Z,101374.56
2022-12-18T08:42:09.875Z,101362.25
2022-12-18T08:45:04.215Z,101365.34
2022-12-18T08:47:52.522Z,101356.59
2022-12-18T08:50:59.236Z,101360.50
2022-12-18T08:53:48.474Z,101348.50
2022-12-18T08:56:41.965Z,101355.53
2022-12-18T09:02:46.807Z,101352.75
2022-12-18T09:05:35.111Z,101351.41
2022-12-18T09:08:27.868Z,101341.59
2022-12-18T09:11:22.858Z,101359.63
2022-12-18T09:14:12.359Z,101356.03
2022-12-18T09:17:03.219Z,101368.94
2022-12-18T09:19:51.788Z,101351.81
2022-12-18T09:22:39.810Z,101367.97
2022-12-18T09:25:33.198Z,101357.00
2022-12-18T09:28:24.918Z,101352.50
2022-12-18T09:31:14.771Z,101362.94
2022-12-18T09:34:03.396Z,101366.19
2022-12-18T09:36:57.455Z,101364.59
2022-12-18T09:39:45.529Z,101366.09
2022-12-18T09:42:34.206Z,101358.31
2022-12-18T09:45:23.098Z,101368.63
2022-12-18T09:48:44.121Z,101369.88
2022-12-18T09:51:56.887Z,101372.63
2022-12-18T09:54:55.431Z,101373.81
2022-12-18T09:57:54.108Z,101359.44
2022-12-18T10:00:43.915Z,101375.25
2022-12-18T10:03:33.495Z,101363.28
2022-12-18T10:06:36.979Z,101358.09
2022-12-18T10:10:31.538Z,101365.63
2022-12-18T10:13:36.098Z,101375.56
2022-12-18T10:16:42.373Z,101378.91
2022-12-18T10:19:50.532Z,101366.13
2022-12-18T10:23:03.937Z,101361.72
2022-12-18T10:26:07.983Z,101334.53
2022-12-18T10:29:05.131Z,101353.13
2022-12-18T10:31:55.818Z,101334.69
2022-12-18T10:34:54.056Z,101352.50
2022-12-18T10:38:29.020Z,101358.22
2022-12-18T10:41:24.262Z,101359.69
2022-12-18T10:44:21.114Z,101368.31
2022-12-18T10:47:16.263Z,101356.44
2022-12-18T10:50:05.348Z,101357.94
2022-12-18T10:53:00.853Z,101360.22
2022-12-18T10:55:54.613Z,101348.50
2022-12-18T10:58:43.564Z,101361.59
2022-12-18T11:01:56.177Z,101331.53
2022-12-18T11:04:53.051Z,101350.34
2022-12-18T11:07:55.436Z,101364.38
2022-12-18T11:10:48.663Z,101343.00
2022-12-18T11:13:39.329Z,101342.06
2022-12-18T11:16:29.560Z,101343.91
2022-12-18T11:19:44.872Z,101348.44
2022-12-18T11:22:36.733Z,101334.75
2022-12-18T11:25:34.589Z,101341.94
2022-12-18T11:28:31.532Z,101344.97
2022-12-18T11:31:32.883Z,101330.78
2022-12-18T11:34:34.658Z,101331.69
2022-12-18T11:37:24.965Z,101339.91
2022-12-18T11:40:40.731Z,101331.25
2022-12-18T11:44:01.663Z,101336.41
2022-12-18T11:46:58.079Z,101337.31
2022-12-18T11:49:49.787Z,101325.25
2022-12-18T11:52:44.189Z,101309.25
2022-12-18T11:56:01.449Z,101318.84
2022-12-18T11:59:02.478Z,101316.81
2022-12-18T12:02:20.118Z,101327.44
2022-12-18T12:05:36.552Z,101327.78
2022-12-18T12:08:40.087Z,101332.22
2022-12-18T12:12:22.009Z,101324.75
2022-12-18T12:15:42.832Z,101317.50
2022-12-18T12:19:14.873Z,101330.78
2022-12-18T12:22:13.872Z,101325.56
2022-12-18T12:25:34.644Z,101322.84
2022-12-18T12:28:53.501Z,101323.91
2022-12-18T12:32:25.100Z,101328.25
2022-12-18T12:39:01.469Z,101307.53
2022-12-18T12:42:08.189Z,101303.53
2022-12-18T12:45:00.214Z,101307.25
2022-12-18T12:47:51.157Z,101301.25
2022-12-18T12:50:43.667Z,101299.34
2022-12-18T12:53:37.705Z,101290.91
2022-12-18T12:56:52.181Z,101277.47
2022-12-18T12:59:48.939Z,101294.41
2022-12-18T13:03:25.242Z,101296.28
2022-12-18T13:06:29.323Z,101298.50
2022-12-18T13:09:18.528Z,101287.50
2022-12-18T13:12:39.473Z,101295.31
2022-12-18T13:15:52.402Z,101285.44
2022-12-18T13:18:58.649Z,101283.81
2022-12-18T13:22:00.091Z,101254.47
2022-12-18T13:24:51.591Z,101267.81
2022-12-18T13:27:49.009Z,101281.22
2022-12-18T13:30:40.083Z,101281.97
2022-12-18T13:33:32.373Z,101283.97
2022-12-18T13:36:35.253Z,101284.59
2022-12-18T13:39:35.430Z,101286.91
2022-12-18T13:42:59.704Z,101277.22
2022-12-18T13:46:57.190Z,101271.03
2022-12-18T13:49:46.133Z,101256.19
2022-12-18T13:52:42.963Z,101246.81
2022-12-18T13:55:31.241Z,101241.59
2022-12-18T13:58:24.811Z,101258.41
2022-12-18T14:01:28.536Z,101255.09
2022-12-18T14:04:34.887Z,101256.38
2022-12-18T14:07:45.170Z,101241.69
2022-12-18T14:10:49.361Z,101253.16
2022-12-18T14:13:42.703Z,101256.63
2022-12-18T14:16:37.647Z,101253.16
2022-12-18T14:19:28.027Z,101259.06
2022-12-18T14:22:26.467Z,101254.63
2022-12-18T14:25:14.418Z,101265.13
2022-12-18T14:28:11.568Z,101245.09
2022-12-18T14:30:59.968Z,101255.13
2022-12-18T14:33:51.761Z,101243.03
2022-12-18T14:36:45.477Z,101237.13
2022-12-18T14:39:33.606Z,101247.94
2022-12-18T14:42:25.661Z,101248.53
2022-12-18T14:45:43.413Z,101250.03
2022-12-18T14:48:48.917Z,101250.03
2022-12-18T14:51:38.427Z,101242.69
2022-12-18T14:54:31.217Z,101243.81
2022-12-18T14:57:28.020Z,101227.06
2022-12-18T15:00:36.220Z,101220.38
2022-12-18T15:03:25.433Z,101242.97
2022-12-18T15:06:45.283Z,101238.53
2022-12-18T15:09:37.441Z,101214.31
2022-12-18T15:12:38.776Z,101215.78
2022-12-18T15:15:39.295Z,101228.66
2022-12-18T15:18:53.700Z,101233.72
2022-12-18T15:21:47.448Z,101228.44
2022-12-18T15:24:42.330Z,101220.16
2022-12-18T15:27:37.615Z,101229.75
2022-12-18T15:30:29.849Z,101223.22
2022-12-18T15:33:32.534Z,101223.06
2022-12-18T15:36:30.232Z,101204.47
2022-12-18T15:39:19.296Z,101191.56
2022-12-18T15:42:32.269Z,101202.22
2022-12-18T15:45:22.416Z,101209.72
2022-12-18T15:48:24.255Z,101204.34
2022-12-18T15:51:26.049Z,101211.00
2022-12-18T15:54:42.096Z,101207.84
2022-12-18T15:57:36.183Z,101194.47
2022-12-18T16:00:26.308Z,101203.38
2022-12-18T16:03:27.450Z,101193.19
2022-12-18T16:06:18.562Z,101197.34
2022-12-18T16:09:15.683Z,101180.13
2022-12-18T16:12:28.870Z,101197.97
2022-12-18T16:15:28.893Z,101202.28
2022-12-18T16:18:34.946Z,101200.69
2022-12-18T16:21:34.105Z,101174.09
2022-12-18T16:24:37.211Z,101186.97
2022-12-18T16:34:38.256Z,101175.69
2022-12-18T16:44:43.389Z,101159.44
2022-12-18T16:47:43.431Z,101163.22
2022-12-18T16:50:49.296Z,101171.31
2022-12-18T16:53:48.241Z,101169.25
2022-12-18T17:00:47.462Z,101162.66
2022-12-18T17:04:09.549Z,101165.19
2022-12-18T17:10:39.072Z,101130.78
2022-12-18T17:14:08.088Z,101144.28
2022-12-18T17:17:37.461Z,101131.84
2022-12-18T17:31:36.259Z,101152.06
2022-12-18T18:03:00.171Z,101134.41
2022-12-18T18:06:30.434Z,101153.25
2022-12-18T18:19:55.415Z,101143.31
2022-12-18T18:23:10.385Z,101131.19
2022-12-18T18:34:18.890Z,101138.56
2022-12-18T18:37:44.429Z,101135.72
2022-12-18T18:41:13.216Z,101128.84
2022-12-18T18:53:25.540Z,101129.63
2022-12-18T19:00:55.088Z,101119.09
2022-12-18T19:03:52.941Z,101086.16
2022-12-18T19:06:47.271Z,101099.56
2022-12-18T19:09:52.005Z,101099.88
2022-12-18T19:13:09.379Z,101080.75
2022-12-18T19:25:13.330Z,101084.16
2022-12-18T19:32:04.543Z,101080.50
2022-12-18T19:35:52.146Z,101083.06
2022-12-18T19:38:46.687Z,101072.75
2022-12-18T19:41:45.491Z,101060.38
2022-12-18T19:48:27.941Z,101084.53
2022-12-18T19:52:01.297Z,101059.69
2022-12-18T19:55:02.160Z,101050.47
2022-12-18T19:58:45.151Z,101054.25
2022-12-18T20:09:51.606Z,101063.41
2022-12-18T20:17:10.959Z,101063.47
2022-12-18T20:20:40.140Z,101048.63
2022-12-18T20:27:30.678Z,101061.88
2022-12-18T20:31:03.442Z,101043.09
2022-12-18T20:34:37.703Z,101026.63
2022-12-18T20:43:22.418Z,101063.44
2022-12-18T20:51:26.667Z,101050.53
2022-12-18T21:07:07.019Z,101033.81
2022-12-18T21:18:13.655Z,101046.28
2022-12-18T21:18:51.298Z,101057.94
2022-12-18T21:22:47.205Z,101036.47
2022-12-18T21:26:21.127Z,101046.03
2022-12-18T21:29:39.302Z,101028.22
2022-12-18T21:37:12.260Z,101045.16
2022-12-18T21:40:17.060Z,101054.03
2022-12-18T21:44:06.264Z,101063.75
2022-12-18T21:47:22.070Z,101042.72
2022-12-18T21:50:54.217Z,101053.50
2022-12-18T21:57:31.961Z,101048.00
2022-12-18T22:00:52.666Z,101057.66
2022-12-18T22:04:29.025Z,101051.34
2022-12-18T22:07:29.806Z,101026.13
2022-12-18T22:18:04.848Z,101027.38
2022-12-18T22:24:00.988Z,101012.97
2022-12-18T22:27:29.792Z,101016.91
2022-12-18T22:30:41.115Z,101037.38
2022-12-18T22:37:49.268Z,101032.66
2022-12-18T22:41:35.863Z,101034.88
2022-12-18T22:44:53.253Z,101016.16
2022-12-18T22:48:00.912Z,101028.53
2022-12-18T22:58:05.615Z,101019.31
2022-12-18T23:01:21.675Z,101003.72
2022-12-18T23:08:19.605Z,101002.50
2022-12-18T23:11:19.411Z,101004.94
2022-12-18T23:14:37.443Z,100997.19
2022-12-18T23:18:28.052Z,101019.69
2022-12-18T23:21:47.575Z,101006.41
2022-12-18T23:28:17.597Z,100980.13
2022-12-18T23:32:57.137Z,100971.16
2022-12-18T23:35:27.839Z,100977.78
2022-12-18T23:38:43.842Z,101012.22
2022-12-18T23:41:58.223Z,100976.03
2022-12-18T23:48:52.253Z,100961.53
2022-12-18T23:51:54.372Z,100955.94
2022-12-18T23:58:26.206Z,100962.59
